Time;durP1;ratioP1;P1;durP2;ratioP2;P2;SDS_P1;SDS_P2;PMS_P1;PMS_P2;Temp;Humidity;BMP_temperature;BMP_pressure;BME280_temperature;BME280_humidity;BME280_pressure;Samples;Min_cycle;Max_cycle;Signal;HPM_P1;HPM_P2
2023/08/10 00:01:51;;;;;;;2.92;1.05;;;15.60;99.90;;;;;;5006925;28;20030;-68
2023/08/10 00:04:19;;;;;;;4.82;1.02;;;15.60;99.90;;;;;;5004737;28;20092;-68
2023/08/10 00:06:45;;;;;;;3.95;1.00;;;15.60;99.90;;;;;;5002064;28;20069;-68
2023/08/10 00:09:11;;;;;;;3.85;0.90;;;15.60;99.90;;;;;;5009013;28;20109;-68
2023/08/10 00:11:37;;;;;;;;;;;15.60;99.90;;;;;;4983374;28;20056;-68
2023/08/10 00:14:03;;;;;;;1.85;0.80;;;15.60;99.90;;;;;;5012898;28;19953;-69
2023/08/10 00:16:29;;;;;;;2.75;0.73;;;15.60;99.90;;;;;;5010038;28;20080;-68
2023/08/10 00:18:55;;;;;;;;;;;15.60;99.90;;;;;;5009626;28;20054;-68
2023/08/10 00:21:21;;;;;;;2.65;1.05;;;15.60;99.90;;;;;;5009588;28;19996;-68
2023/08/10 00:23:47;;;;;;;2.20;0.50;;;15.60;99.90;;;;;;5003497;28;20104;-68
2023/08/10 00:26:13;;;;;;;2.55;0.98;;;15.60;99.90;;;;;;5002682;28;20329;-68
2023/08/10 00:28:41;;;;;;;6.22;0.98;;;15.60;99.90;;;;;;4991577;28;20049;-68
2023/08/10 00:31:07;;;;;;;5.97;0.85;;;15.50;99.90;;;;;;5008729;28;20487;-68
2023/08/10 00:33:34;;;;;;;2.72;0.90;;;15.50;99.90;;;;;;5008592;28;20124;-68
2023/08/10 00:36:06;;;;;;;3.55;0.82;;;15.50;99.90;;;;;;5011047;28;20415;-68
2023/08/10 00:38:37;;;;;;;4.18;0.93;;;15.50;99.90;;;;;;5007744;28;20066;-69
2023/08/10 00:41:04;;;;;;;7.45;1.90;;;15.50;99.90;;;;;;5006931;28;20271;-68
2023/08/10 00:43:29;;;;;;;3.30;1.02;;;15.40;99.90;;;;;;5004657;28;20044;-68
2023/08/10 00:45:55;;;;;;;3.20;1.02;;;15.40;99.90;;;;;;4991162;28;20044;-69
2023/08/10 00:48:23;;;;;;;6.63;1.38;;;15.40;99.90;;;;;;5004352;28;20670;-69
2023/08/10 00:50:49;;;;;;;4.22;0.82;;;15.40;99.90;;;;;;4991953;28;20060;-68
2023/08/10 00:53:16;;;;;;;;;;;15.40;99.90;;;;;;4988519;28;20045;-68
2023/08/10 00:55:43;;;;;;;3.97;1.05;;;15.30;99.90;;;;;;5001202;28;19965;-69
2023/08/10 00:58:13;;;;;;;3.13;1.00;;;15.30;99.90;;;;;;5008011;28;20045;-68
2023/08/10 01:00:39;;;;;;;2.38;1.00;;;15.30;99.90;;;;;;5005891;28;20046;-69
2023/08/10 01:03:07;;;;;;;4.75;0.85;;;15.30;99.90;;;;;;5007014;28;20037;-68
2023/08/10 01:06:03;;;;;;;5.20;0.95;;;15.30;99.90;;;;;;4989154;28;20406;-69
2023/08/10 01:08:38;;;;;;;2.67;1.02;;;15.20;99.90;;;;;;4996773;28;20046;-69
2023/08/10 01:11:29;;;;;;;2.70;1.00;;;15.20;99.90;;;;;;5004246;28;20038;-68
2023/08/10 01:14:30;;;;;;;5.00;1.38;;;15.20;99.90;;;;;;5007057;28;20214;-68
2023/08/10 01:16:59;;;;;;;3.90;1.38;;;15.20;99.90;;;;;;4998361;28;20038;-69
2023/08/10 01:19:36;;;;;;;4.85;1.13;;;15.10;99.90;;;;;;5007151;28;20038;-69
2023/08/10 01:22:21;;;;;;;4.68;1.15;;;15.10;99.90;;;;;;4999481;28;20672;-69
2023/08/10 01:25:07;;;;;;;2.88;0.95;;;15.10;99.90;;;;;;5005794;28;20081;-68
2023/08/10 01:27:34;;;;;;;7.18;1.45;;;15.00;99.90;;;;;;5003825;28;20042;-68
2023/08/10 01:30:02;;;;;;;6.40;1.48;;;14.90;99.90;;;;;;5008527;28;20038;-69
2023/08/10 01:32:31;;;;;;;2.45;0.90;;;14.90;99.90;;;;;;5006772;28;20064;-68
2023/08/10 01:34:57;;;;;;;2.78;1.55;;;14.90;99.90;;;;;;5001973;28;20049;-69
2023/08/10 01:37:23;;;;;;;3.63;0.90;;;14.90;99.90;;;;;;5002824;28;20438;-69
2023/08/10 01:39:49;;;;;;;;;;;14.80;99.90;;;;;;5008921;28;20049;-69
2023/08/10 01:42:15;;;;;;;3.78;0.98;;;14.80;99.90;;;;;;4982872;28;19952;-69
2023/08/10 01:44:40;;;;;;;4.60;1.63;;;14.80;99.90;;;;;;5004491;28;20115;-68
2023/08/10 01:47:15;;;;;;;7.65;1.38;;;14.70;99.90;;;;;;5005608;28;20124;-68
2023/08/10 01:49:44;;;;;;;3.15;1.20;;;14.70;99.90;;;;;;4990720;28;20038;-69
2023/08/10 01:52:11;;;;;;;3.17;1.08;;;14.70;99.90;;;;;;5006572;28;20042;-69
2023/08/10 01:54:39;;;;;;;5.60;1.08;;;14.70;99.90;;;;;;5000844;28;20052;-68
2023/08/10 01:57:07;;;;;;;4.45;1.38;;;14.60;99.90;;;;;;5003975;28;20069;-68
2023/08/10 01:59:33;;;;;;;4.47;1.52;;;14.60;99.90;;;;;;4990707;28;20053;-68
2023/08/10 02:01:59;;;;;;;9.20;1.17;;;14.60;99.90;;;;;;5004097;28;20488;-69
2023/08/10 02:04:24;;;;;;;5.30;1.30;;;14.50;99.90;;;;;;5002429;28;20442;-69
2023/08/10 02:06:53;;;;;;;2.95;1.25;;;14.50;99.90;;;;;;5004183;28;20045;-69
2023/08/10 02:09:18;;;;;;;5.32;1.30;;;14.50;99.90;;;;;;4987420;28;20056;-68
2023/08/10 02:11:44;;;;;;;4.47;1.17;;;14.50;99.90;;;;;;5005646;28;20042;-69
2023/08/10 02:14:10;;;;;;;4.28;1.65;;;14.50;99.90;;;;;;5004086;28;20037;-68
2023/08/10 02:16:35;;;;;;;2.42;1.30;;;14.50;99.90;;;;;;5003897;28;20046;-68
2023/08/10 02:19:01;;;;;;;4.43;0.80;;;14.50;99.90;;;;;;5005778;28;20041;-68
2023/08/10 02:21:27;;;;;;;2.20;0.98;;;14.50;99.90;;;;;;5003212;28;20484;-69
2023/08/10 02:23:53;;;;;;;3.30;1.23;;;14.50;99.90;;;;;;5002214;28;20103;-69
2023/08/10 02:26:22;;;;;;;4.55;1.13;;;14.40;99.90;;;;;;5006618;28;20523;-68
2023/08/10 02:28:47;;;;;;;2.95;0.98;;;14.40;99.90;;;;;;5002254;28;20133;-69
2023/08/10 02:31:13;;;;;;;5.80;1.02;;;14.40;99.90;;;;;;4986100;28;20141;-68
2023/08/10 02:33:41;;;;;;;3.85;1.00;;;14.40;99.90;;;;;;5002983;28;20064;-68
2023/08/10 02:36:07;;;;;;;2.40;1.13;;;14.40;99.90;;;;;;5005280;28;20044;-68
2023/08/10 02:38:32;;;;;;;2.22;1.00;;;14.40;99.90;;;;;;4993056;28;20398;-68
2023/08/10 02:41:01;;;;;;;5.63;0.93;;;14.40;99.90;;;;;;5005411;28;20041;-69
2023/08/10 02:43:27;;;;;;;5.65;1.23;;;14.50;99.90;;;;;;5006297;28;20479;-69
2023/08/10 02:45:52;;;;;;;3.28;2.08;;;14.40;99.90;;;;;;5006838;28;20555;-69
2023/08/10 02:48:18;;;;;;;3.97;1.40;;;14.40;99.90;;;;;;5009128;28;20125;-69
2023/08/10 02:50:44;;;;;;;2.78;1.23;;;14.40;99.90;;;;;;5008676;28;20077;-69
2023/08/10 02:53:10;;;;;;;2.07;1.20;;;14.40;99.90;;;;;;5007945;28;20042;-69
2023/08/10 02:55:35;;;;;;;3.30;1.30;;;14.40;99.90;;;;;;5005196;28;20292;-69
2023/08/10 02:58:01;;;;;;;2.50;1.10;;;14.40;99.90;;;;;;4993151;28;20070;-69
2023/08/10 03:00:27;;;;;;;5.68;1.55;;;14.40;99.90;;;;;;5005431;28;20129;-68
2023/08/10 03:02:52;;;;;;;10.43;1.33;;;14.40;99.90;;;;;;5010384;28;20041;-69
2023/08/10 03:05:18;;;;;;;5.00;1.33;;;14.40;99.90;;;;;;5008480;28;20858;-69
2023/08/10 03:07:48;;;;;;;3.80;1.20;;;14.50;99.90;;;;;;5003373;28;20054;-69
2023/08/10 03:10:14;;;;;;;3.08;1.50;;;14.50;99.90;;;;;;5001517;28;20346;-69
2023/08/10 03:12:40;;;;;;;3.42;1.30;;;14.50;99.90;;;;;;5008709;28;20038;-69
2023/08/10 03:15:09;;;;;;;4.03;1.75;;;14.50;99.90;;;;;;5005611;28;20519;-69
2023/08/10 03:17:35;;;;;;;3.63;1.10;;;14.50;99.90;;;;;;5005177;28;20042;-69
2023/08/10 03:20:01;;;;;;;3.42;1.50;;;14.50;99.90;;;;;;5008995;28;20096;-69
2023/08/10 03:22:27;;;;;;;3.50;1.70;;;14.50;99.90;;;;;;5004985;28;20549;-69
2023/08/10 03:24:53;;;;;;;6.53;1.60;;;14.50;99.90;;;;;;5002524;28;20117;-69
2023/08/10 03:27:19;;;;;;;;;;;14.50;99.90;;;;;;5010525;28;20049;-69
2023/08/10 03:29:47;;;;;;;3.25;1.50;;;14.50;99.90;;;;;;5004474;28;20457;-69
2023/08/10 03:32:13;;;;;;;3.85;1.42;;;14.50;99.90;;;;;;5006979;28;20065;-69
2023/08/10 03:34:39;;;;;;;5.15;1.65;;;14.50;99.90;;;;;;5005460;28;20053;-69
2023/08/10 03:37:05;;;;;;;4.50;2.03;;;14.50;99.90;;;;;;5007577;28;20062;-69
2023/08/10 03:39:33;;;;;;;5.53;2.10;;;14.50;99.90;;;;;;5009235;28;20045;-69
2023/08/10 03:41:58;;;;;;;3.63;1.50;;;14.50;99.90;;;;;;5010070;28;20538;-69
2023/08/10 03:44:24;;;;;;;3.42;1.77;;;14.50;99.90;;;;;;5004229;28;20084;-69
2023/08/10 03:46:53;;;;;;;5.32;1.88;;;14.50;99.90;;;;;;5005431;28;20330;-69
2023/08/10 03:49:19;;;;;;;3.97;1.77;;;14.50;99.90;;;;;;5009898;28;20042;-69
2023/08/10 03:51:45;;;;;;;2.88;1.50;;;14.50;99.90;;;;;;5006724;28;20030;-69
2023/08/10 03:54:11;;;;;;;4.15;1.50;;;14.50;99.90;;;;;;5008460;28;20053;-69
2023/08/10 03:56:37;;;;;;;4.32;1.73;;;14.50;99.90;;;;;;5006342;28;20053;-69
2023/08/10 03:59:04;;;;;;;4.03;2.08;;;14.50;99.90;;;;;;4989590;28;20121;-69
2023/08/10 04:01:30;;;;;;;7.97;1.77;;;14.50;99.90;;;;;;4990623;28;20191;-69
2023/08/10 04:03:56;;;;;;;3.28;1.80;;;14.50;99.90;;;;;;4985121;28;20499;-69
2023/08/10 04:06:22;;;;;;;4.95;1.63;;;14.50;99.90;;;;;;5008340;28;20037;-69
2023/08/10 04:08:48;;;;;;;1.83;1.25;;;14.50;99.90;;;;;;5010496;28;20075;-69
2023/08/10 04:11:14;;;;;;;7.88;1.50;;;14.50;99.90;;;;;;5009728;28;20495;-69
2023/08/10 04:13:40;;;;;;;5.18;1.60;;;14.60;99.90;;;;;;5007034;28;20045;-69
2023/08/10 04:16:06;;;;;;;5.65;2.42;;;14.50;99.90;;;;;;5008748;28;20411;-70
2023/08/10 04:18:31;;;;;;;6.72;1.40;;;14.50;99.90;;;;;;5006791;28;20042;-69
2023/08/10 04:20:58;;;;;;;2.53;1.42;;;14.50;99.90;;;;;;5006756;28;20042;-69
2023/08/10 04:23:23;;;;;;;3.08;1.40;;;14.50;99.90;;;;;;5007975;28;20187;-69
2023/08/10 04:25:49;;;;;;;3.47;1.58;;;14.60;99.90;;;;;;5005313;28;20432;-69
2023/08/10 04:28:15;;;;;;;2.17;1.40;;;14.60;99.90;;;;;;5008920;28;20046;-69
2023/08/10 04:30:41;;;;;;;1.95;1.17;;;14.60;99.90;;;;;;5005677;28;20033;-69
2023/08/10 04:33:07;;;;;;;5.65;1.90;;;14.60;99.90;;;;;;5006462;28;20044;-69
2023/08/10 04:35:33;;;;;;;;;;;14.60;99.90;;;;;;5012229;28;20289;-69
2023/08/10 04:37:59;;;;;;;3.83;1.30;;;14.60;99.90;;;;;;5008490;28;20183;-70
2023/08/10 04:40:24;;;;;;;2.92;1.08;;;14.60;99.90;;;;;;5001069;28;20066;-69
2023/08/10 04:42:50;;;;;;;4.15;1.33;;;14.60;99.90;;;;;;5008179;28;20483;-69
2023/08/10 04:45:17;;;;;;;6.07;1.67;;;14.70;99.90;;;;;;5005453;28;20049;-69
2023/08/10 04:47:46;;;;;;;3.83;1.80;;;14.70;99.90;;;;;;5008166;28;20467;-69
2023/08/10 04:50:12;;;;;;;4.13;1.30;;;14.70;99.90;;;;;;5005359;28;20468;-69
2023/08/10 04:52:40;;;;;;;5.72;1.45;;;14.70;99.90;;;;;;5004063;28;20049;-69
2023/08/10 04:55:06;;;;;;;2.97;1.20;;;14.80;99.90;;;;;;5022396;28;20046;-69
2023/08/10 04:57:36;;;;;;;2.00;1.25;;;14.80;99.90;;;;;;5005282;28;20042;-69
2023/08/10 05:00:09;;;;;;;3.08;1.17;;;14.80;99.90;;;;;;4988680;28;20053;-69
2023/08/10 05:02:35;;;;;;;2.95;1.50;;;14.80;99.90;;;;;;5000687;28;20052;-69
2023/08/10 05:05:00;;;;;;;3.28;1.58;;;14.80;99.90;;;;;;4988598;28;20050;-69
2023/08/10 05:07:27;;;;;;;3.45;1.25;;;14.90;99.90;;;;;;5002962;28;20109;-69
2023/08/10 05:09:53;;;;;;;2.35;1.00;;;14.90;99.90;;;;;;4996510;28;20580;-69
2023/08/10 05:12:19;;;;;;;5.93;1.70;;;15.00;99.90;;;;;;4997874;28;20415;-69
2023/08/10 05:14:44;;;;;;;4.22;1.55;;;15.00;99.90;;;;;;4988903;28;20187;-70
2023/08/10 05:17:10;;;;;;;8.23;2.38;;;15.00;99.90;;;;;;5003658;28;20503;-69
2023/08/10 05:19:36;;;;;;;4.65;1.70;;;15.10;99.90;;;;;;5005850;28;20415;-69
2023/08/10 05:22:02;;;;;;;2.30;1.20;;;15.10;99.90;;;;;;4999083;28;20045;-69
2023/08/10 05:24:28;;;;;;;4.35;1.25;;;15.10;99.90;;;;;;5004674;28;20305;-69
2023/08/10 05:26:53;;;;;;;4.68;1.42;;;15.20;99.90;;;;;;4993591;28;20033;-73
2023/08/10 05:29:20;;;;;;;5.72;1.58;;;15.20;99.90;;;;;;5005868;28;20094;-69
2023/08/10 05:31:46;;;;;;;5.68;1.48;;;15.20;99.90;;;;;;5001130;28;20266;-71
2023/08/10 05:34:11;;;;;;;4.57;1.35;;;15.30;99.90;;;;;;5024113;28;20048;-71
2023/08/10 05:39:05;;;;;;;2.30;1.10;;;15.30;99.90;;;;;;5064300;28;20045;-74
2023/08/10 05:41:30;;;;;;;5.47;1.30;;;15.30;99.90;;;;;;5065263;28;20028;-74
2023/08/10 05:43:56;;;;;;;6.40;1.38;;;15.40;99.90;;;;;;5081158;28;20523;-74
2023/08/10 05:46:22;;;;;;;7.70;1.90;;;15.40;99.90;;;;;;5065161;28;20401;-73
2023/08/10 05:48:49;;;;;;;5.35;1.27;;;15.40;99.90;;;;;;5050303;28;20040;-75
2023/08/10 05:51:14;;;;;;;2.33;1.30;;;15.50;99.90;;;;;;5051946;28;20419;-75
2023/08/10 05:53:41;;;;;;;2.78;1.30;;;15.50;99.90;;;;;;5063750;28;20066;-74
2023/08/10 05:56:07;;;;;;;3.05;1.08;;;15.50;99.90;;;;;;5060788;28;20531;-77
2023/08/10 05:58:33;;;;;;;3.20;1.40;;;15.50;99.90;;;;;;5069821;28;20055;-74
2023/08/10 06:00:59;;;;;;;4.78;1.38;;;15.60;99.90;;;;;;5059876;28;20135;-75
2023/08/10 06:03:25;;;;;;;2.95;1.13;;;15.60;99.90;;;;;;5067542;28;20056;-74
2023/08/10 06:05:51;;;;;;;2.33;0.80;;;15.70;99.90;;;;;;5045372;28;20032;-73
2023/08/10 06:08:17;;;;;;;3.35;1.05;;;15.70;99.90;;;;;;5070560;28;20085;-71
2023/08/10 06:10:42;;;;;;;2.70;1.10;;;15.70;99.90;;;;;;5048820;28;20044;-71
2023/08/10 06:13:08;;;;;;;3.10;1.30;;;15.80;99.90;;;;;;5054539;28;20123;-71
2023/08/10 06:15:34;;;;;;;4.28;1.20;;;15.80;99.90;;;;;;5055402;28;20043;-70
2023/08/10 06:18:00;;;;;;;3.67;1.40;;;15.90;99.90;;;;;;5040229;28;20041;-71
2023/08/10 06:20:26;;;;;;;6.22;1.10;;;15.90;99.90;;;;;;5053975;28;20032;-72
2023/08/10 06:22:54;;;;;;;2.40;1.27;;;15.90;99.90;;;;;;5060473;28;20048;-71
2023/08/10 06:25:20;;;;;;;2.65;0.73;;;16.00;99.90;;;;;;5072740;28;20049;-70
2023/08/10 06:27:47;;;;;;;4.72;0.90;;;16.00;99.90;;;;;;5057938;28;20040;-71
2023/08/10 06:30:16;;;;;;;2.78;0.88;;;16.10;99.90;;;;;;5066554;28;20067;-71
2023/08/10 06:32:42;;;;;;;7.10;1.33;;;16.10;99.90;;;;;;5064962;28;20044;-71
2023/08/10 06:35:10;;;;;;;2.10;0.80;;;16.10;99.90;;;;;;5071234;28;20047;-70
2023/08/10 06:37:37;;;;;;;3.20;1.17;;;16.10;99.90;;;;;;5058298;28;20606;-71
2023/08/10 06:40:08;;;;;;;4.53;1.00;;;16.20;99.90;;;;;;5070809;28;20136;-71
2023/08/10 06:42:35;;;;;;;2.33;0.63;;;16.20;99.90;;;;;;5063813;28;20037;-71
2023/08/10 06:45:05;;;;;;;3.47;1.42;;;16.30;99.90;;;;;;5056063;28;20086;-71
2023/08/10 06:47:31;;;;;;;4.22;0.90;;;16.30;99.90;;;;;;5064769;28;20040;-71
2023/08/10 06:49:57;;;;;;;3.00;0.95;;;16.30;99.90;;;;;;5054677;28;20032;-71
2023/08/10 06:52:24;;;;;;;2.63;0.68;;;16.40;99.90;;;;;;5054174;28;20048;-74
2023/08/10 06:54:52;;;;;;;2.88;1.30;;;16.40;99.90;;;;;;5066761;28;20048;-75
2023/08/10 06:57:20;;;;;;;4.82;1.10;;;16.50;99.90;;;;;;5057466;28;20071;-72
2023/08/10 06:59:45;;;;;;;3.47;0.60;;;16.50;99.90;;;;;;5062431;28;20603;-71
2023/08/10 07:02:11;;;;;;;2.50;0.77;;;16.50;99.90;;;;;;5054135;28;20132;-73
2023/08/10 07:04:37;;;;;;;2.78;1.02;;;16.50;99.90;;;;;;5061941;28;20084;-71
2023/08/10 07:07:03;;;;;;;2.88;0.90;;;16.60;99.90;;;;;;5056785;28;20092;-71
2023/08/10 07:09:28;;;;;;;3.05;1.30;;;16.60;99.90;;;;;;5054627;28;20037;-71
2023/08/10 07:11:54;;;;;;;2.03;0.82;;;16.60;99.90;;;;;;5055280;28;20044;-71
2023/08/10 07:14:20;;;;;;;3.70;1.15;;;16.70;99.90;;;;;;5050779;28;20417;-71
2023/08/10 07:16:46;;;;;;;3.58;1.00;;;16.70;99.90;;;;;;5050419;28;20036;-71
2023/08/10 07:19:12;;;;;;;3.97;0.93;;;16.70;99.90;;;;;;5063446;28;20049;-69
2023/08/10 07:21:38;;;;;;;2.60;0.60;;;16.70;99.90;;;;;;5070042;28;20044;-69
2023/08/10 07:24:05;;;;;;;3.78;0.95;;;16.80;99.90;;;;;;5074279;28;20045;-70
2023/08/10 07:26:32;;;;;;;5.13;0.50;;;16.80;99.90;;;;;;5065616;28;20066;-70
2023/08/10 07:28:58;;;;;;;4.68;0.80;;;16.80;99.90;;;;;;5067585;28;20112;-70
2023/08/10 07:31:31;;;;;;;2.28;0.90;;;16.80;99.90;;;;;;5067569;28;20151;-70
2023/08/10 07:34:01;;;;;;;1.50;0.68;;;16.90;99.90;;;;;;5068167;28;20051;-70
2023/08/10 07:36:27;;;;;;;3.10;0.60;;;16.80;99.90;;;;;;5069206;28;20052;-70
2023/08/10 07:38:55;;;;;;;4.03;0.70;;;16.90;99.90;;;;;;5061334;28;20055;-70
2023/08/10 07:41:22;;;;;;;0.88;0.47;;;16.90;99.90;;;;;;5069422;28;20051;-71
2023/08/10 07:43:48;;;;;;;2.08;0.57;;;17.00;99.90;;;;;;5075012;28;20051;-70
2023/08/10 07:46:14;;;;;;;2.15;0.50;;;17.00;99.90;;;;;;5067987;28;20037;-70
2023/08/10 07:48:40;;;;;;;1.42;0.57;;;17.00;99.90;;;;;;5063107;28;20453;-70
2023/08/10 07:51:06;;;;;;;1.45;0.60;;;17.10;99.90;;;;;;5073053;28;20127;-70
2023/08/10 07:53:32;;;;;;;;;;;17.20;99.90;;;;;;5065776;28;20386;-70
2023/08/10 07:55:58;;;;;;;3.90;0.82;;;17.20;99.90;;;;;;5070604;28;20355;-70
2023/08/10 07:58:24;;;;;;;1.48;0.50;;;17.20;99.90;;;;;;5063666;28;20068;-70
2023/08/10 08:00:50;;;;;;;1.88;0.60;;;17.20;99.90;;;;;;5057477;28;20498;-70
2023/08/10 08:03:16;;;;;;;1.58;0.70;;;17.30;99.90;;;;;;5040574;28;20454;-70
2023/08/10 08:05:41;;;;;;;;;;;17.30;99.90;;;;;;5060725;28;20044;-70
2023/08/10 08:08:08;;;;;;;3.67;0.82;;;17.30;99.90;;;;;;5064163;28;19928;-71
2023/08/10 08:10:34;;;;;;;2.45;0.88;;;17.40;99.90;;;;;;5058068;28;20032;-70
2023/08/10 08:13:02;;;;;;;;;;;17.40;99.90;;;;;;5058698;28;20123;-70
2023/08/10 08:15:29;;;;;;;1.90;0.52;;;17.40;99.90;;;;;;5063408;28;19916;-71
2023/08/10 08:18:13;;;;;;;;;;;17.40;99.90;;;;;;5067843;28;20497;-70
2023/08/10 08:20:38;;;;;;;1.00;0.50;;;17.40;99.90;;;;;;5079208;28;20381;-70
2023/08/10 08:23:04;;;;;;;3.83;0.70;;;17.40;99.90;;;;;;5069335;28;20032;-70
2023/08/10 08:25:30;;;;;;;3.03;0.75;;;17.40;99.90;;;;;;5062028;28;20068;-70
2023/08/10 08:27:55;;;;;;;3.33;0.50;;;17.50;99.90;;;;;;5061274;28;20068;-70
2023/08/10 08:30:25;;;;;;;4.13;0.80;;;17.40;99.90;;;;;;5063951;28;20052;-70
2023/08/10 08:32:51;;;;;;;6.20;0.50;;;17.40;99.90;;;;;;5068886;28;20076;-70
2023/08/10 08:35:16;;;;;;;1.52;0.43;;;17.40;99.90;;;;;;5069690;28;20461;-70
2023/08/10 08:37:42;;;;;;;6.47;1.05;;;17.40;99.90;;;;;;5064203;28;20048;-70
2023/08/10 08:40:08;;;;;;;7.75;1.05;;;17.40;99.90;;;;;;5056440;28;20049;-70
2023/08/10 08:42:34;;;;;;;3.72;0.80;;;17.40;99.90;;;;;;5068203;28;20059;-70
2023/08/10 08:45:00;;;;;;;4.07;1.20;;;17.40;99.90;;;;;;5070233;28;20041;-70
2023/08/10 08:47:26;;;;;;;;;;;17.40;99.90;;;;;;5061280;28;20044;-70
2023/08/10 08:49:52;;;;;;;6.18;1.02;;;17.40;99.90;;;;;;5063800;28;19932;-70
2023/08/10 08:52:20;;;;;;;2.20;0.90;;;17.40;99.90;;;;;;5052295;28;20054;-71
2023/08/10 08:54:46;;;;;;;2.70;0.60;;;17.40;99.90;;;;;;5048965;28;20056;-70
2023/08/10 08:57:11;;;;;;;;;;;17.40;99.90;;;;;;5061707;28;20064;-70
2023/08/10 08:59:38;;;;;;;2.20;0.70;;;17.40;99.90;;;;;;5058529;28;20009;-70
2023/08/10 09:02:03;;;;;;;1.70;0.90;;;17.40;99.90;;;;;;5070271;28;20072;-70
2023/08/10 09:04:29;;;;;;;3.72;0.85;;;17.40;99.90;;;;;;5069707;28;20079;-70
2023/08/10 09:06:55;;;;;;;3.15;0.65;;;17.40;99.90;;;;;;5064609;28;20032;-70
2023/08/10 09:09:22;;;;;;;3.75;1.05;;;17.50;99.90;;;;;;5070798;28;20081;-70
2023/08/10 09:11:48;;;;;;;3.08;0.90;;;17.50;99.90;;;;;;5059534;28;20033;-70
2023/08/10 09:14:14;;;;;;;1.85;0.70;;;17.50;99.90;;;;;;5052952;28;20042;-70
2023/08/10 09:16:44;;;;;;;2.75;0.65;;;17.50;99.90;;;;;;5065297;28;20048;-70
2023/08/10 09:19:14;;;;;;;3.55;0.77;;;17.50;99.90;;;;;;5059697;28;20055;-70
2023/08/10 09:21:40;;;;;;;4.20;1.17;;;17.50;99.90;;;;;;5063062;28;20421;-70
2023/08/10 09:24:09;;;;;;;4.63;0.73;;;17.50;99.90;;;;;;5078782;28;20040;-70
2023/08/10 09:26:34;;;;;;;1.83;0.47;;;17.50;99.90;;;;;;5063518;28;20057;-70
2023/08/10 09:29:03;;;;;;;4.35;0.98;;;17.50;99.90;;;;;;5067808;28;20044;-70
2023/08/10 09:31:29;;;;;;;3.00;0.63;;;17.50;99.90;;;;;;5065098;28;20123;-70
2023/08/10 09:33:59;;;;;;;3.60;1.00;;;17.60;99.90;;;;;;5067661;28;20078;-70
2023/08/10 09:36:29;;;;;;;2.65;0.85;;;17.50;99.90;;;;;;5052117;28;20040;-70
2023/08/10 09:38:56;;;;;;;1.80;0.75;;;17.60;99.90;;;;;;5068195;28;20036;-71
2023/08/10 09:41:23;;;;;;;3.90;0.90;;;17.60;99.90;;;;;;5049415;28;20487;-70
2023/08/10 09:43:49;;;;;;;2.95;0.82;;;17.60;99.90;;;;;;5067568;28;20044;-70
2023/08/10 09:46:16;;;;;;;2.83;0.93;;;17.70;99.90;;;;;;5057159;28;20037;-70
2023/08/10 09:48:48;;;;;;;6.40;1.00;;;17.70;99.90;;;;;;5066520;28;20080;-70
2023/08/10 09:51:14;;;;;;;2.67;0.80;;;17.70;99.90;;;;;;5069918;28;20056;-70
2023/08/10 09:53:40;;;;;;;2.67;0.85;;;17.80;99.90;;;;;;5068782;28;20101;-70
2023/08/10 09:56:07;;;;;;;3.10;0.80;;;17.80;99.90;;;;;;5058063;28;20045;-70
2023/08/10 09:58:38;;;;;;;2.45;0.88;;;17.90;99.90;;;;;;5067477;28;20040;-70
2023/08/10 10:01:07;;;;;;;4.32;1.08;;;17.90;99.90;;;;;;5065486;28;20040;-70
2023/08/10 10:03:34;;;;;;;4.03;0.80;;;17.90;99.90;;;;;;5061581;28;20154;-70
2023/08/10 10:06:01;;;;;;;2.53;0.77;;;18.00;99.90;;;;;;5071633;28;20057;-70
2023/08/10 10:08:28;;;;;;;2.13;0.80;;;18.10;99.90;;;;;;5077439;28;20032;-70
2023/08/10 10:10:57;;;;;;;3.13;1.00;;;18.10;99.90;;;;;;5070526;28;20455;-70
2023/08/10 10:13:23;;;;;;;3.33;0.68;;;18.10;99.90;;;;;;5052419;28;20066;-70
2023/08/10 10:15:51;;;;;;;2.80;0.98;;;18.20;99.90;;;;;;5062566;28;20071;-70
2023/08/10 10:18:17;;;;;;;3.03;0.90;;;18.20;99.90;;;;;;5067365;28;20044;-70
2023/08/10 10:20:44;;;;;;;3.67;0.95;;;18.30;99.90;;;;;;5058921;28;20444;-70
2023/08/10 10:23:14;;;;;;;2.83;0.95;;;18.40;99.90;;;;;;5069370;28;20040;-70
2023/08/10 10:25:41;;;;;;;3.60;0.60;;;18.40;99.90;;;;;;5067224;28;20086;-70
2023/08/10 10:28:14;;;;;;;2.47;0.93;;;18.40;99.90;;;;;;5069009;28;20029;-70
2023/08/10 10:30:53;;;;;;;2.95;1.00;;;18.50;99.90;;;;;;5064773;28;20139;-70
2023/08/10 10:33:19;;;;;;;7.05;1.20;;;18.40;99.90;;;;;;5070800;28;20029;-71
2023/08/10 10:36:11;;;;;;;6.45;2.38;;;18.50;99.90;;;;;;5067122;28;20056;-70
2023/08/10 10:38:41;;;;;;;6.88;1.30;;;18.60;99.90;;;;;;5064109;28;20049;-70
2023/08/10 10:41:15;;;;;;;3.55;0.98;;;18.70;99.90;;;;;;5064126;28;20052;-71
2023/08/10 10:43:44;;;;;;;3.03;1.13;;;18.70;99.90;;;;;;5062500;28;20067;-70
2023/08/10 10:46:32;;;;;;;4.72;1.20;;;18.80;99.90;;;;;;5069722;28;20111;-71
2023/08/10 10:49:04;;;;;;;2.38;1.08;;;18.90;99.90;;;;;;5060683;28;20044;-70
2023/08/10 10:51:30;;;;;;;2.88;0.90;;;18.90;99.90;;;;;;5060592;28;20045;-71
2023/08/10 10:53:57;;;;;;;5.65;1.17;;;18.90;99.90;;;;;;5060664;28;20512;-70
2023/08/10 10:56:24;;;;;;;2.38;1.10;;;19.00;99.90;;;;;;5067138;28;20055;-70
2023/08/10 10:58:50;;;;;;;4.15;1.67;;;19.10;99.90;;;;;;5067233;28;20476;-70
2023/08/10 11:01:20;;;;;;;3.35;1.20;;;19.10;99.90;;;;;;5062103;28;20041;-70
2023/08/10 11:03:56;;;;;;;1.63;0.82;;;19.10;99.90;;;;;;5073915;28;20490;-70
2023/08/10 11:06:24;;;;;;;4.50;1.00;;;19.20;99.90;;;;;;5050463;28;20052;-70
2023/08/10 11:08:51;;;;;;;4.75;1.30;;;19.20;99.90;;;;;;5079143;28;20147;-70
2023/08/10 11:11:17;;;;;;;6.07;1.90;;;19.20;99.90;;;;;;5070354;28;20113;-70
2023/08/10 11:13:43;;;;;;;;;;;19.30;99.90;;;;;;5055223;28;20041;-70
2023/08/10 11:16:09;;;;;;;3.10;1.25;;;19.20;99.90;;;;;;5065907;28;19923;-70
2023/08/10 11:18:37;;;;;;;4.57;2.08;;;19.30;99.90;;;;;;5085226;28;20043;-70
2023/08/10 11:21:06;;;;;;;2.20;1.27;;;19.30;99.90;;;;;;5069977;28;20041;-70
2023/08/10 11:23:32;;;;;;;3.05;1.42;;;19.30;99.90;;;;;;5063140;28;20039;-70
2023/08/10 11:25:58;;;;;;;3.78;1.40;;;19.40;99.90;;;;;;5073626;28;20041;-70
2023/08/10 11:28:26;;;;;;;3.45;1.92;;;19.50;99.90;;;;;;5049061;28;20065;-70
2023/08/10 11:30:51;;;;;;;4.82;1.92;;;19.60;99.90;;;;;;5083550;28;20052;-70
2023/08/10 11:33:18;;;;;;;4.90;1.73;;;19.70;99.90;;;;;;5054077;28;20033;-70
2023/08/10 11:35:52;;;;;;;4.20;1.63;;;19.70;99.90;;;;;;5057526;28;20085;-70
2023/08/10 11:38:19;;;;;;;5.68;1.90;;;19.70;99.90;;;;;;5047314;22;20068;-69
2023/08/10 11:40:45;;;;;;;8.25;1.98;;;19.70;99.90;;;;;;5029461;28;20433;-69
2023/08/10 11:43:15;;;;;;;3.63;1.67;;;19.70;99.90;;;;;;5029055;28;20140;-69
2023/08/10 11:45:41;;;;;;;5.20;2.00;;;19.60;99.90;;;;;;5012441;28;20049;-69
2023/08/10 11:48:12;;;;;;;3.95;1.50;;;19.60;99.90;;;;;;5018054;28;20042;-70
2023/08/10 11:50:39;;;;;;;2.53;1.27;;;19.60;99.90;;;;;;5025409;28;20126;-70
2023/08/10 11:53:12;;;;;;;6.55;1.92;;;19.60;99.90;;;;;;5030596;28;20445;-70
2023/08/10 11:55:47;;;;;;;6.72;2.15;;;19.60;99.90;;;;;;5028754;28;20053;-70
2023/08/10 11:58:14;;;;;;;4.35;1.98;;;19.60;99.90;;;;;;5028384;28;20041;-70
2023/08/10 12:00:47;;;;;;;8.52;1.90;;;19.60;99.90;;;;;;5025684;28;20526;-70
2023/08/10 12:03:18;;;;;;;3.40;1.80;;;19.60;99.90;;;;;;5028937;28;20033;-70
2023/08/10 12:05:45;;;;;;;5.20;2.20;;;19.50;99.90;;;;;;5028327;28;20057;-70
2023/08/10 12:08:19;;;;;;;3.40;2.13;;;19.50;99.90;;;;;;5028223;28;20410;-70
2023/08/10 12:10:51;;;;;;;4.07;1.95;;;19.50;99.90;;;;;;5025387;28;20048;-70
2023/08/10 12:13:19;;;;;;;3.20;1.90;;;19.40;99.90;;;;;;5022043;28;20038;-70
2023/08/10 12:15:46;;;;;;;4.55;2.30;;;19.40;99.90;;;;;;5026965;28;20541;-70
2023/08/10 12:18:16;;;;;;;8.32;2.28;;;19.40;99.90;;;;;;5026564;28;20160;-70
2023/08/10 12:20:46;;;;;;;4.57;1.77;;;19.40;99.90;;;;;;5024767;28;20045;-70
2023/08/10 12:23:13;;;;;;;4.25;2.42;;;19.40;99.90;;;;;;5027919;28;20410;-70
2023/08/10 12:25:40;;;;;;;3.15;1.60;;;19.40;99.90;;;;;;5024966;28;20041;-70
2023/08/10 12:28:07;;;;;;;6.10;1.50;;;19.40;99.90;;;;;;5026849;28;20627;-70
2023/08/10 12:30:33;;;;;;;5.97;1.70;;;19.40;99.90;;;;;;5021678;28;20089;-70
2023/08/10 12:33:00;;;;;;;3.83;1.90;;;19.40;99.90;;;;;;5010041;28;20041;-70
2023/08/10 12:35:26;;;;;;;4.30;1.67;;;19.50;99.90;;;;;;5018247;28;20076;-70
2023/08/10 12:37:52;;;;;;;6.13;2.35;;;19.50;99.90;;;;;;5023615;28;20081;-70
2023/08/10 12:40:18;;;;;;;4.68;1.92;;;19.50;99.90;;;;;;5027379;28;20488;-70
2023/08/10 12:42:44;;;;;;;6.85;2.05;;;19.50;99.90;;;;;;5027223;28;20107;-70
2023/08/10 12:45:10;;;;;;;;;;;19.60;99.90;;;;;;5024466;28;20125;-70
2023/08/10 12:47:41;;;;;;;4.70;1.95;;;19.60;99.90;;;;;;5028498;28;19940;-70
2023/08/10 12:50:09;;;;;;;6.55;2.90;;;19.60;99.90;;;;;;5005426;28;20151;-70
2023/08/10 12:52:36;;;;;;;3.67;1.90;;;19.60;99.90;;;;;;5027286;28;20053;-70
2023/08/10 12:55:02;;;;;;;7.88;2.35;;;19.60;99.90;;;;;;5026940;28;20045;-70